createdAt,value
2023-04-15T00:00:10.502Z,10.97
2023-04-15T00:02:58.339Z,10.98
2023-04-15T00:05:26.418Z,10.98
2023-04-15T00:07:54.847Z,10.98
2023-04-15T00:10:22.706Z,10.96
2023-04-15T00:12:51.190Z,10.93
2023-04-15T00:15:19.616Z,10.91
2023-04-15T00:17:47.857Z,10.90
2023-04-15T00:20:15.748Z,10.89
2023-04-15T00:22:43.588Z,10.88
2023-04-15T00:25:11.717Z,10.87
2023-04-15T00:27:39.719Z,10.85
2023-04-15T00:30:08.240Z,10.85
2023-04-15T00:32:36.214Z,10.85
2023-04-15T00:35:04.361Z,10.85
2023-04-15T00:37:32.126Z,10.84
2023-04-15T00:39:59.959Z,10.84
2023-04-15T00:42:28.576Z,10.84
2023-04-15T00:44:57.458Z,10.84
2023-04-15T00:47:27.327Z,10.83
2023-04-15T00:49:55.184Z,10.82
2023-04-15T00:52:22.918Z,10.83
2023-04-15T00:54:52.513Z,10.83
2023-04-15T00:57:22.438Z,10.83
2023-04-15T00:59:52.716Z,10.83
2023-04-15T01:02:21.455Z,10.83
2023-04-15T01:04:50.428Z,10.82
2023-04-15T01:07:18.460Z,10.81
2023-04-15T01:09:46.398Z,10.80
2023-04-15T01:12:18.370Z,10.79
2023-04-15T01:14:46.698Z,10.78
2023-04-15T01:17:14.565Z,10.76
2023-04-15T01:19:42.789Z,10.75
2023-04-15T01:22:11.215Z,10.73
2023-04-15T01:24:40.023Z,10.71
2023-04-15T01:27:07.823Z,10.70
2023-04-15T01:29:39.154Z,10.70
2023-04-15T01:32:07.021Z,10.69
2023-04-15T01:34:35.920Z,10.67
2023-04-15T01:37:03.839Z,10.65
2023-04-15T01:39:31.642Z,10.63
2023-04-15T01:41:59.413Z,10.61
2023-04-15T01:44:27.763Z,10.59
2023-04-15T01:46:55.551Z,10.58
2023-04-15T01:49:24.179Z,10.58
2023-04-15T01:51:51.938Z,10.57
2023-04-15T01:54:19.785Z,10.57
2023-04-15T01:56:47.619Z,10.56
2023-04-15T01:59:15.406Z,10.54
2023-04-15T02:01:43.164Z,10.52
2023-04-15T02:04:16.689Z,10.50
2023-04-15T02:06:44.568Z,10.49
2023-04-15T02:09:12.621Z,10.47
2023-04-15T02:11:40.489Z,10.44
2023-04-15T02:14:08.437Z,10.41
2023-04-15T02:16:36.754Z,10.38
2023-04-15T02:19:04.588Z,10.35
2023-04-15T02:21:32.447Z,10.31
2023-04-15T02:24:00.169Z,10.28
2023-04-15T02:26:28.898Z,10.26
2023-04-15T02:28:56.619Z,10.23
2023-04-15T02:31:26.081Z,10.21
2023-04-15T02:33:53.882Z,10.18
2023-04-15T02:36:21.741Z,10.17
2023-04-15T02:38:49.559Z,10.20
2023-04-15T02:41:17.946Z,10.30
2023-04-15T02:43:45.780Z,10.40
2023-04-15T02:46:14.956Z,10.45
2023-04-15T02:48:42.825Z,10.46
2023-04-15T02:51:19.967Z,10.44
2023-04-15T02:53:49.270Z,10.43
2023-04-15T02:56:17.498Z,10.37
2023-04-15T02:58:46.137Z,10.31
2023-04-15T03:01:14.029Z,10.28
2023-04-15T03:03:42.444Z,10.25
2023-04-15T03:06:10.246Z,10.28
2023-04-15T03:08:37.997Z,10.29
2023-04-15T03:11:06.475Z,10.28
2023-04-15T03:13:34.440Z,10.27
2023-04-15T03:16:02.354Z,10.27
2023-04-15T03:18:30.394Z,10.26
2023-04-15T03:20:58.111Z,10.26
2023-04-15T03:23:26.020Z,10.25
2023-04-15T03:25:56.094Z,10.25
2023-04-15T03:28:24.652Z,10.24
2023-04-15T03:30:52.386Z,10.24
2023-04-15T03:33:20.170Z,10.24
2023-04-15T03:35:47.967Z,10.22
2023-04-15T03:38:15.783Z,10.21
2023-04-15T03:40:43.681Z,10.20
2023-04-15T03:43:11.414Z,10.19
2023-04-15T03:45:39.209Z,10.18
2023-04-15T03:48:17.094Z,10.18
2023-04-15T03:50:46.299Z,10.19
2023-04-15T03:53:14.731Z,10.19
2023-04-15T03:55:42.552Z,10.20
2023-04-15T03:58:13.052Z,10.20
2023-04-15T04:00:41.656Z,10.20
2023-04-15T04:03:09.707Z,10.19
2023-04-15T04:05:39.196Z,10.19
2023-04-15T04:08:07.804Z,10.18
2023-04-15T04:10:35.996Z,10.18
2023-04-15T04:13:03.777Z,10.19
2023-04-15T04:15:31.865Z,10.19
2023-04-15T04:17:59.775Z,10.19
2023-04-15T04:20:27.509Z,10.18
2023-04-15T04:22:55.244Z,10.16
2023-04-15T04:25:23.088Z,10.15
2023-04-15T04:27:50.856Z,10.12
2023-04-15T04:30:18.813Z,10.09
2023-04-15T04:32:46.625Z,10.07
2023-04-15T04:35:14.451Z,10.05
2023-04-15T04:37:42.291Z,10.06
2023-04-15T04:40:10.846Z,10.05
2023-04-15T04:42:40.053Z,10.03
2023-04-15T04:45:08.834Z,10.01
2023-04-15T04:47:36.814Z,10.01
2023-04-15T04:50:05.311Z,10.02
2023-04-15T04:52:33.161Z,10.04
2023-04-15T04:55:00.916Z,10.06
2023-04-15T04:57:28.626Z,10.09
2023-04-15T04:59:56.823Z,10.10
2023-04-15T05:02:27.447Z,10.13
2023-04-15T05:04:55.612Z,10.15
2023-04-15T05:07:23.388Z,10.18
2023-04-15T05:09:51.679Z,10.21
2023-04-15T05:12:19.444Z,10.24
2023-04-15T05:14:47.145Z,10.28
2023-04-15T05:17:15.485Z,10.34
2023-04-15T05:19:43.227Z,10.43
2023-04-15T05:22:11.095Z,10.45
2023-04-15T05:24:39.022Z,10.46
2023-04-15T05:27:08.661Z,10.48
2023-04-15T05:29:36.746Z,10.52
2023-04-15T05:32:04.819Z,10.58
2023-04-15T05:34:32.640Z,10.62
2023-04-15T05:37:00.827Z,10.69
2023-04-15T05:39:28.674Z,10.75
2023-04-15T05:41:57.928Z,10.82
2023-04-15T05:44:26.039Z,10.87
2023-04-15T05:46:53.770Z,10.91
2023-04-15T05:49:21.659Z,10.98
2023-04-15T05:51:49.897Z,11.03
2023-04-15T05:54:20.293Z,11.09
2023-04-15T05:56:48.291Z,11.13
2023-04-15T05:59:16.176Z,11.16
2023-04-15T06:01:44.119Z,11.20
2023-04-15T06:04:12.350Z,11.24
2023-04-15T06:06:40.668Z,11.28
2023-04-15T06:09:08.436Z,11.31
2023-04-15T06:11:36.547Z,11.34
2023-04-15T06:14:04.248Z,11.37
2023-04-15T06:16:32.358Z,11.39
2023-04-15T06:19:00.437Z,11.39
2023-04-15T06:21:28.378Z,11.42
2023-04-15T06:23:56.886Z,11.45
2023-04-15T06:26:24.786Z,11.48
2023-04-15T06:28:52.588Z,11.51
2023-04-15T06:31:20.809Z,11.53
2023-04-15T06:33:48.781Z,11.55
2023-04-15T06:36:16.688Z,11.56
2023-04-15T06:38:44.466Z,11.62
2023-04-15T06:41:12.740Z,11.73
2023-04-15T06:43:40.620Z,11.85
2023-04-15T06:46:08.370Z,11.87
2023-04-15T06:48:36.225Z,11.89
2023-04-15T06:51:04.300Z,11.91
2023-04-15T06:53:32.186Z,11.96
2023-04-15T06:55:59.933Z,12.00
2023-04-15T06:58:27.770Z,12.02
2023-04-15T07:00:55.851Z,12.04
2023-04-15T07:03:23.672Z,12.04
2023-04-15T07:05:51.528Z,12.04
2023-04-15T07:08:20.706Z,12.04
2023-04-15T07:10:48.498Z,12.03
2023-04-15T07:13:19.782Z,12.04
2023-04-15T07:15:50.067Z,12.06
2023-04-15T07:18:18.165Z,12.11
2023-04-15T07:20:45.971Z,12.15
2023-04-15T07:23:13.750Z,12.18
2023-04-15T07:25:41.531Z,12.18
2023-04-15T07:28:09.541Z,12.18
2023-04-15T07:30:37.799Z,12.18
2023-04-15T07:33:06.047Z,12.19
2023-04-15T07:35:34.012Z,12.20
2023-04-15T07:38:02.516Z,12.22
2023-04-15T07:40:30.380Z,12.24
2023-04-15T07:42:58.699Z,12.24
2023-04-15T07:45:27.553Z,12.23
2023-04-15T07:47:56.901Z,12.22
2023-04-15T07:50:25.021Z,12.20
2023-04-15T07:52:53.035Z,12.20
2023-04-15T07:55:23.053Z,12.20
2023-04-15T07:57:51.214Z,12.20
2023-04-15T08:00:19.113Z,12.19
2023-04-15T08:02:48.594Z,12.18
2023-04-15T08:05:16.672Z,12.19
2023-04-15T08:07:44.779Z,12.19
2023-04-15T08:10:12.905Z,12.20
2023-04-15T08:12:40.857Z,12.22
2023-04-15T08:15:09.581Z,12.24
2023-04-15T08:17:37.350Z,12.26
2023-04-15T08:20:07.086Z,12.28
2023-04-15T08:22:34.818Z,12.29
2023-04-15T08:25:03.577Z,12.30
2023-04-15T08:27:31.412Z,12.27
2023-04-15T08:29:59.494Z,12.25
2023-04-15T08:32:27.369Z,12.22
2023-04-15T08:34:55.469Z,12.20
2023-04-15T08:37:23.245Z,12.18
2023-04-15T08:39:50.995Z,12.17
2023-04-15T08:42:31.754Z,12.17
2023-04-15T08:45:01.908Z,12.15
2023-04-15T08:47:34.566Z,12.17
2023-04-15T08:50:04.519Z,12.22
2023-04-15T08:52:32.420Z,12.24
2023-04-15T08:55:02.782Z,12.26
2023-04-15T08:57:32.274Z,12.25
2023-04-15T09:00:05.623Z,12.27
2023-04-15T09:02:33.941Z,12.28
2023-04-15T09:05:05.018Z,12.27
2023-04-15T09:07:36.035Z,12.26
2023-04-15T09:10:05.041Z,12.25
2023-04-15T09:12:36.905Z,12.28
2023-04-15T09:15:05.355Z,12.31
2023-04-15T09:17:34.858Z,12.32
2023-04-15T09:20:15.271Z,12.33
2023-04-15T09:22:47.103Z,12.34
2023-04-15T09:25:32.176Z,12.36
2023-04-15T09:28:02.428Z,12.41
2023-04-15T09:30:30.696Z,12.43
2023-04-15T09:33:02.552Z,12.40
2023-04-15T09:35:30.560Z,12.39
2023-04-15T09:38:08.110Z,12.40
2023-04-15T09:40:39.042Z,12.38
2023-04-15T09:43:09.814Z,12.36
2023-04-15T09:45:37.896Z,12.35
2023-04-15T09:48:21.744Z,12.39
2023-04-15T09:50:50.690Z,12.44
2023-04-15T09:53:21.926Z,12.46
2023-04-15T09:55:52.928Z,12.49
2023-04-15T09:58:31.501Z,12.49
2023-04-15T10:01:03.118Z,12.48
2023-04-15T10:03:35.982Z,12.47
2023-04-15T10:06:05.787Z,12.46
2023-04-15T10:08:35.123Z,12.45
2023-04-15T10:11:05.315Z,12.45
2023-04-15T10:13:35.297Z,12.43
2023-04-15T10:16:14.934Z,12.41
2023-04-15T10:18:51.617Z,12.44
2023-04-15T10:21:19.921Z,12.46
2023-04-15T10:23:48.976Z,12.51
2023-04-15T10:26:17.901Z,12.57
2023-04-15T10:28:49.832Z,12.65
2023-04-15T10:31:20.188Z,12.71
2023-04-15T10:33:49.893Z,12.79
2023-04-15T10:36:19.970Z,12.87
2023-04-15T10:38:47.839Z,12.92
2023-04-15T10:41:25.174Z,12.97
2023-04-15T10:44:01.213Z,13.04
2023-04-15T10:46:45.195Z,13.07
2023-04-15T10:49:18.049Z,13.08
2023-04-15T10:51:54.023Z,13.11
2023-04-15T10:54:24.754Z,13.15
2023-04-15T10:57:23.666Z,13.13
2023-04-15T11:00:30.755Z,13.05
2023-04-15T11:03:10.216Z,12.98
2023-04-15T11:05:54.327Z,12.97
2023-04-15T11:09:02.499Z,12.95
2023-04-15T11:12:09.950Z,12.91
2023-04-15T11:14:42.247Z,12.83
2023-04-15T11:17:10.342Z,12.77
2023-04-15T11:19:39.244Z,12.74
2023-04-15T11:22:11.499Z,12.70
2023-04-15T11:24:52.149Z,12.68
2023-04-15T11:27:24.192Z,12.70
2023-04-15T11:29:53.141Z,12.74
2023-04-15T11:32:22.010Z,12.78
2023-04-15T11:34:51.985Z,12.81
2023-04-15T11:37:30.141Z,12.85
2023-04-15T11:39:58.004Z,12.93
2023-04-15T11:42:26.881Z,13.01
2023-04-15T11:45:12.809Z,13.12
2023-04-15T11:47:42.870Z,13.16
2023-04-15T11:50:28.962Z,13.16
2023-04-15T11:53:01.582Z,13.21
2023-04-15T11:55:29.569Z,13.28
2023-04-15T11:58:13.535Z,13.35
2023-04-15T12:00:54.983Z,13.49
2023-04-15T12:03:38.231Z,13.67
2023-04-15T12:06:19.877Z,13.76
2023-04-15T12:09:15.540Z,13.80
2023-04-15T12:11:53.202Z,13.82
2023-04-15T12:14:26.094Z,13.80
2023-04-15T12:17:00.326Z,13.75
2023-04-15T12:19:37.852Z,13.72
2023-04-15T12:22:10.435Z,13.65
2023-04-15T12:24:39.886Z,13.52
2023-04-15T12:27:11.031Z,13.38
2023-04-15T12:29:43.249Z,13.23
2023-04-15T12:32:14.193Z,13.11
2023-04-15T12:34:53.335Z,12.99
2023-04-15T12:37:21.841Z,12.90
2023-04-15T12:39:51.584Z,12.85
2023-04-15T12:42:20.765Z,12.79
2023-04-15T12:44:48.591Z,12.72
2023-04-15T12:47:16.433Z,12.68
2023-04-15T12:49:44.353Z,12.67
2023-04-15T12:52:12.178Z,12.66
2023-04-15T12:54:40.082Z,12.63
2023-04-15T12:57:07.985Z,12.57
2023-04-15T12:59:36.669Z,12.50
2023-04-15T13:02:04.836Z,12.40
2023-04-15T13:04:33.143Z,12.33
2023-04-15T13:07:02.412Z,12.28
2023-04-15T13:09:31.440Z,12.27
2023-04-15T13:11:59.394Z,12.27
2023-04-15T13:14:27.331Z,12.26
2023-04-15T13:16:55.345Z,12.24
2023-04-15T13:19:23.714Z,12.22
2023-04-15T13:21:51.607Z,12.22
2023-04-15T13:24:19.511Z,12.24
2023-04-15T13:26:49.683Z,12.25
2023-04-15T13:29:18.055Z,12.26
2023-04-15T13:31:49.298Z,12.25
2023-04-15T13:34:17.371Z,12.21
2023-04-15T13:36:46.445Z,12.17
2023-04-15T13:39:14.394Z,12.15
2023-04-15T13:41:43.751Z,12.16
2023-04-15T13:44:12.661Z,12.17
2023-04-15T13:46:42.685Z,12.19
2023-04-15T13:49:10.839Z,12.22
2023-04-15T13:51:38.853Z,12.25
2023-04-15T13:54:07.118Z,12.28
2023-04-15T13:56:35.196Z,12.29
2023-04-15T13:59:03.490Z,12.30
2023-04-15T14:01:31.566Z,12.33
2023-04-15T14:03:59.662Z,12.36
2023-04-15T14:06:28.743Z,12.34
2023-04-15T14:08:56.526Z,12.34
2023-04-15T14:11:24.447Z,12.35
2023-04-15T14:13:52.320Z,12.35
2023-04-15T14:16:20.777Z,12.33
2023-04-15T14:18:48.686Z,12.30
2023-04-15T14:21:18.550Z,12.29
2023-04-15T14:23:46.456Z,12.29
2023-04-15T14:26:14.746Z,12.29
2023-04-15T14:28:45.104Z,12.28
2023-04-15T14:31:13.038Z,12.26
2023-04-15T14:33:41.213Z,12.25
2023-04-15T14:36:09.981Z,12.25
2023-04-15T14:38:41.199Z,12.23
2023-04-15T14:41:10.144Z,12.22
2023-04-15T14:43:37.928Z,12.21
2023-04-15T14:46:06.922Z,12.21
2023-04-15T14:48:34.972Z,12.19
2023-04-15T14:51:02.898Z,12.17
2023-04-15T14:53:30.845Z,12.12
2023-04-15T14:55:58.678Z,12.05
2023-04-15T14:58:26.750Z,11.99
2023-04-15T15:00:54.723Z,11.90
2023-04-15T15:03:24.024Z,11.83
2023-04-15T15:05:52.152Z,11.77
2023-04-15T15:08:20.113Z,11.71
2023-04-15T15:10:49.777Z,11.67
2023-04-15T15:13:19.255Z,11.60
2023-04-15T15:15:49.780Z,11.57
2023-04-15T15:18:19.576Z,11.55
2023-04-15T15:20:48.107Z,11.52
2023-04-15T15:23:16.069Z,11.50
2023-04-15T15:25:45.893Z,11.46
2023-04-15T15:28:13.787Z,11.44
2023-04-15T15:30:41.913Z,11.42
2023-04-15T15:33:09.816Z,11.41
2023-04-15T15:35:37.663Z,11.38
2023-04-15T15:38:06.457Z,11.37
2023-04-15T15:40:34.466Z,11.34
2023-04-15T15:43:02.276Z,11.32
2023-04-15T15:45:30.663Z,11.29
2023-04-15T15:47:59.462Z,11.27
2023-04-15T15:50:27.481Z,11.26
2023-04-15T15:52:55.587Z,11.25
2023-04-15T15:55:25.399Z,11.23
2023-04-15T15:57:54.377Z,11.23
2023-04-15T16:00:23.419Z,11.24
2023-04-15T16:03:06.742Z,11.25
2023-04-15T16:05:36.497Z,11.27
2023-04-15T16:08:05.084Z,11.29
2023-04-15T16:10:33.091Z,11.29
2023-04-15T16:13:02.211Z,11.29
2023-04-15T16:15:30.307Z,11.30
2023-04-15T16:17:58.131Z,11.29
2023-04-15T16:20:28.465Z,11.30
2023-04-15T16:22:58.621Z,11.29
2023-04-15T16:25:27.160Z,11.28
2023-04-15T16:28:05.413Z,11.27
2023-04-15T16:30:40.611Z,11.27
2023-04-15T16:33:09.786Z,11.27
2023-04-15T16:35:37.760Z,11.26
2023-04-15T16:38:06.603Z,11.25
2023-04-15T16:40:35.187Z,11.24
2023-04-15T16:43:04.759Z,11.20
2023-04-15T16:45:32.618Z,11.15
2023-04-15T16:48:00.559Z,11.12
2023-04-15T16:50:28.859Z,11.10
2023-04-15T16:52:56.628Z,11.07
2023-04-15T16:55:24.564Z,11.06
2023-04-15T16:58:01.427Z,11.05
2023-04-15T17:00:37.130Z,11.04
2023-04-15T17:03:06.260Z,11.05
2023-04-15T17:05:34.901Z,11.05
2023-04-15T17:08:03.084Z,11.08
2023-04-15T17:10:31.501Z,11.09
2023-04-15T17:12:59.421Z,11.10
2023-04-15T17:15:27.606Z,11.14
2023-04-15T17:17:56.560Z,11.15
2023-04-15T17:20:25.300Z,11.16
2023-04-15T17:22:53.333Z,11.16
2023-04-15T17:25:21.421Z,11.16
2023-04-15T17:27:49.307Z,11.15
2023-04-15T17:30:19.350Z,11.15
2023-04-15T17:32:47.370Z,11.15
2023-04-15T17:35:15.587Z,11.15
2023-04-15T17:37:43.436Z,11.14
2023-04-15T17:40:12.562Z,11.14
2023-04-15T17:42:41.475Z,11.14
2023-04-15T17:45:10.372Z,11.15
2023-04-15T17:47:38.454Z,11.15
2023-04-15T17:50:08.469Z,11.14
2023-04-15T17:52:36.495Z,11.14
2023-04-15T17:55:05.430Z,11.14
2023-04-15T17:57:33.611Z,11.15
2023-04-15T18:00:02.750Z,11.13
2023-04-15T18:02:31.118Z,11.12
2023-04-15T18:05:01.007Z,11.11
2023-04-15T18:07:29.268Z,11.10
2023-04-15T18:09:57.450Z,11.06
2023-04-15T18:12:25.609Z,11.01
2023-04-15T18:14:53.818Z,10.97
2023-04-15T18:17:22.219Z,10.95
2023-04-15T18:19:53.553Z,10.92
2023-04-15T18:22:22.009Z,10.89
2023-04-15T18:24:50.137Z,10.86
2023-04-15T18:27:18.921Z,10.84
2023-04-15T18:29:47.545Z,10.82
2023-04-15T18:32:15.563Z,10.82
2023-04-15T18:34:43.667Z,10.81
2023-04-15T18:37:11.766Z,10.79
2023-04-15T18:39:40.059Z,10.79
2023-04-15T18:42:08.085Z,10.77
2023-04-15T18:44:36.093Z,10.76
2023-04-15T18:47:04.158Z,10.74
2023-04-15T18:49:33.396Z,10.72
2023-04-15T18:52:01.172Z,10.70
2023-04-15T18:54:29.054Z,10.68
2023-04-15T18:56:57.393Z,10.64
2023-04-15T18:59:29.816Z,10.61
2023-04-15T19:02:00.357Z,10.60
2023-04-15T19:04:29.468Z,10.58
2023-04-15T19:06:59.397Z,10.58
2023-04-15T19:09:30.486Z,10.57
2023-04-15T19:11:58.457Z,10.54
2023-04-15T19:14:26.600Z,10.52
2023-04-15T19:16:55.104Z,10.50
2023-04-15T19:19:22.998Z,10.48
2023-04-15T19:21:51.154Z,10.47
2023-04-15T19:24:19.958Z,10.46
2023-04-15T19:26:50.425Z,10.46
2023-04-15T19:29:18.727Z,10.44
2023-04-15T19:31:46.845Z,10.41
2023-04-15T19:34:14.867Z,10.38
2023-04-15T19:36:43.191Z,10.34
2023-04-15T19:39:11.525Z,10.32
2023-04-15T19:41:39.689Z,10.29
2023-04-15T19:44:07.675Z,10.27
2023-04-15T19:46:35.699Z,10.23
2023-04-15T19:49:03.801Z,10.18
2023-04-15T19:51:32.171Z,10.15
2023-04-15T19:54:00.004Z,10.13
2023-04-15T19:56:28.129Z,10.09
2023-04-15T19:58:56.019Z,10.06
2023-04-15T20:01:23.974Z,10.02
2023-04-15T20:03:54.499Z,10.00
2023-04-15T20:06:22.457Z,9.97
2023-04-15T20:08:50.395Z,9.94
2023-04-15T20:11:18.280Z,9.90
2023-04-15T20:13:46.047Z,9.85
2023-04-15T20:16:13.927Z,9.80
2023-04-15T20:18:41.966Z,9.77
2023-04-15T20:21:09.996Z,9.74
2023-04-15T20:23:38.440Z,9.71
2023-04-15T20:26:06.926Z,9.70
2023-04-15T20:28:34.854Z,9.68
2023-04-15T20:31:03.099Z,9.67
2023-04-15T20:33:30.981Z,9.66
2023-04-15T20:35:59.818Z,9.63
2023-04-15T20:38:27.638Z,9.60
2023-04-15T20:40:55.871Z,9.58
2023-04-15T20:43:24.329Z,9.56
2023-04-15T20:45:54.292Z,9.52
2023-04-15T20:48:24.013Z,9.49
2023-04-15T20:50:52.006Z,9.45
2023-04-15T20:53:19.836Z,9.43
2023-04-15T20:55:47.938Z,9.40
2023-04-15T20:58:15.782Z,9.35
2023-04-15T21:00:45.416Z,9.31
2023-04-15T21:03:13.756Z,9.30
2023-04-15T21:05:41.820Z,9.28
2023-04-15T21:08:09.717Z,9.25
2023-04-15T21:10:37.617Z,9.24
2023-04-15T21:13:06.917Z,9.22
2023-04-15T21:15:34.820Z,9.23
2023-04-15T21:18:02.584Z,9.25
2023-04-15T21:20:30.329Z,9.29
2023-04-15T21:22:58.081Z,9.31
2023-04-15T21:25:25.825Z,9.34
2023-04-15T21:27:53.570Z,9.34
2023-04-15T21:30:21.442Z,9.34
2023-04-15T21:32:49.204Z,9.35
2023-04-15T21:35:17.240Z,9.36
2023-04-15T21:37:45.028Z,9.37
2023-04-15T21:40:14.782Z,9.36
2023-04-15T21:42:42.631Z,9.36
2023-04-15T21:45:11.150Z,9.37
2023-04-15T21:48:05.845Z,9.37
2023-04-15T21:50:27.623Z,9.36
2023-04-15T21:52:55.558Z,9.36
2023-04-15T21:55:23.598Z,9.34
2023-04-15T21:57:51.402Z,9.32
2023-04-15T22:00:19.221Z,9.30
2023-04-15T22:02:47.125Z,9.29
2023-04-15T22:05:15.163Z,9.29
2023-04-15T22:07:44.227Z,9.29
2023-04-15T22:10:12.188Z,9.27
2023-04-15T22:12:42.967Z,9.28
2023-04-15T22:15:10.852Z,9.27
2023-04-15T22:17:38.705Z,9.28
2023-04-15T22:20:09.190Z,9.30
2023-04-15T22:22:44.046Z,9.30
2023-04-15T22:25:12.848Z,9.30
2023-04-15T22:27:40.930Z,9.31
2023-04-15T22:30:10.999Z,9.31
2023-04-15T22:32:39.068Z,9.34
2023-04-15T22:35:07.391Z,9.34
2023-04-15T22:37:35.314Z,9.34
2023-04-15T22:40:03.491Z,9.34
2023-04-15T22:42:31.357Z,9.33
2023-04-15T22:44:59.171Z,9.34
2023-04-15T22:47:27.147Z,9.34
2023-04-15T22:49:55.012Z,9.33
2023-04-15T22:52:30.044Z,9.33
2023-04-15T22:54:59.596Z,9.33
2023-04-15T22:57:28.654Z,9.31
2023-04-15T22:59:56.727Z,9.31
2023-04-15T23:02:24.888Z,9.31
2023-04-15T23:04:52.972Z,9.31
2023-04-15T23:07:20.979Z,9.31
2023-04-15T23:09:48.849Z,9.31
2023-04-15T23:12:16.772Z,9.30
2023-04-15T23:14:44.527Z,9.27
2023-04-15T23:17:12.527Z,9.26
2023-04-15T23:19:40.719Z,9.25
2023-04-15T23:22:10.726Z,9.24
2023-04-15T23:24:38.627Z,9.22
2023-04-15T23:27:06.479Z,9.21
2023-04-15T23:29:34.299Z,9.20
2023-04-15T23:32:02.237Z,9.18
2023-04-15T23:34:30.107Z,9.16
2023-04-15T23:36:57.967Z,9.15
2023-04-15T23:39:25.796Z,9.14
2023-04-15T23:41:53.671Z,9.15
2023-04-15T23:44:21.425Z,9.15
2023-04-15T23:46:49.358Z,9.15
2023-04-15T23:49:18.985Z,9.13
2023-04-15T23:51:48.257Z,9.11
2023-04-15T23:54:16.023Z,9.09
2023-04-15T23:56:43.817Z,9.08
2023-04-15T23:59:11.862Z,9.05
